Time;durP1;ratioP1;P1;durP2;ratioP2;P2;SDS_P1;SDS_P2;PMS_P1;PMS_P2;Temp;Humidity;BMP_temperature;BMP_pressure;BME280_temperature;BME280_humidity;BME280_pressure;Samples;Min_cycle;Max_cycle;Signal;HPM_P1;HPM_P2
2023/10/30 00:00:56;;;;;;;1.60;1.03;;;15.00;99.90;;;;;;5041671;28;20252;-61
2023/10/30 00:03:23;;;;;;;1.60;1.13;;;15.00;99.90;;;;;;5044394;28;20277;-60
2023/10/30 00:05:50;;;;;;;0.82;0.82;;;15.00;99.90;;;;;;5045030;28;20224;-60
2023/10/30 00:08:17;;;;;;;1.00;0.70;;;15.10;99.90;;;;;;5042879;28;20206;-61
2023/10/30 00:10:44;;;;;;;2.37;1.00;;;15.10;99.90;;;;;;5041385;28;20230;-60
2023/10/30 00:13:12;;;;;;;1.07;0.97;;;15.20;99.90;;;;;;5043031;28;20280;-61
2023/10/30 00:15:38;;;;;;;1.50;1.30;;;15.20;99.90;;;;;;5044551;28;20201;-60
2023/10/30 00:18:05;;;;;;;1.30;1.20;;;15.10;99.90;;;;;;5043620;28;20221;-61
2023/10/30 00:20:32;;;;;;;1.30;0.80;;;15.30;99.90;;;;;;5041015;28;20230;-62
2023/10/30 00:22:58;;;;;;;1.05;0.80;;;15.30;99.90;;;;;;5040977;28;20679;-65
2023/10/30 00:25:25;;;;;;;0.70;0.65;;;15.30;99.90;;;;;;5044435;28;20197;-61
2023/10/30 00:27:52;;;;;;;1.17;1.05;;;15.20;99.90;;;;;;5044113;28;20683;-60
2023/10/30 00:30:20;;;;;;;1.65;1.05;;;15.30;99.90;;;;;;5041632;28;20718;-61
2023/10/30 00:32:46;;;;;;;2.87;0.90;;;15.30;99.90;;;;;;5040728;28;20245;-61
2023/10/30 00:35:13;;;;;;;1.17;0.80;;;14.90;99.90;;;;;;5042421;28;20210;-61
2023/10/30 00:37:40;;;;;;;1.37;0.57;;;14.80;99.90;;;;;;5044107;28;20237;-60
2023/10/30 00:40:08;;;;;;;1.02;0.77;;;14.70;99.90;;;;;;5043253;28;20236;-60
2023/10/30 00:42:35;;;;;;;0.57;0.57;;;14.70;99.90;;;;;;5040421;28;20210;-61
2023/10/30 00:45:04;;;;;;;1.20;0.60;;;14.70;99.90;;;;;;5040538;28;20206;-60
2023/10/30 00:47:32;;;;;;;0.80;0.73;;;14.70;99.90;;;;;;5044516;28;20251;-60
2023/10/30 00:49:59;;;;;;;1.00;0.60;;;14.70;99.90;;;;;;5043931;28;20234;-61
2023/10/30 00:52:25;;;;;;;1.97;0.63;;;14.80;99.90;;;;;;5040528;28;20199;-61
2023/10/30 00:54:53;;;;;;;1.20;0.53;;;14.80;99.90;;;;;;5040257;28;20210;-62
2023/10/30 00:57:20;;;;;;;1.13;0.67;;;14.70;99.90;;;;;;5042368;28;20236;-61
2023/10/30 00:59:47;;;;;;;1.00;0.65;;;14.60;99.90;;;;;;5043892;28;20205;-60
2023/10/30 01:02:13;;;;;;;0.93;0.73;;;14.60;99.90;;;;;;5041855;28;20208;-61
2023/10/30 01:04:41;;;;;;;2.03;1.00;;;14.70;99.90;;;;;;5040298;28;20210;-61
2023/10/30 01:07:08;;;;;;;1.00;0.70;;;14.80;99.90;;;;;;5040794;28;20691;-61
2023/10/30 01:09:35;;;;;;;1.53;1.00;;;14.90;99.90;;;;;;5043488;28;20675;-60
2023/10/30 01:12:02;;;;;;;0.93;0.85;;;14.90;99.90;;;;;;5043494;28;20789;-62
2023/10/30 01:14:29;;;;;;;2.15;0.85;;;15.00;99.90;;;;;;5043546;28;20209;-63
2023/10/30 01:16:55;;;;;;;3.80;1.00;;;15.00;99.90;;;;;;5043500;28;20237;-60
2023/10/30 01:19:22;;;;;;;1.13;0.80;;;15.10;99.90;;;;;;5040612;28;20301;-63
2023/10/30 01:21:51;;;;;;;1.25;0.90;;;15.20;99.90;;;;;;5039733;28;20264;-61
2023/10/30 01:24:17;;;;;;;0.85;0.80;;;15.30;99.90;;;;;;5041705;28;20217;-60
2023/10/30 01:26:44;;;;;;;4.20;1.00;;;15.40;99.90;;;;;;5043451;28;20201;-61
2023/10/30 01:29:11;;;;;;;1.52;0.90;;;15.40;99.90;;;;;;5042658;28;20220;-62
2023/10/30 01:31:37;;;;;;;2.40;0.90;;;15.30;99.90;;;;;;5039830;28;20307;-61
2023/10/30 01:34:04;;;;;;;1.27;0.75;;;15.20;99.90;;;;;;5040124;28;20206;-63
2023/10/30 01:36:31;;;;;;;1.10;0.93;;;15.10;99.90;;;;;;5043554;28;20233;-61
2023/10/30 01:38:59;;;;;;;1.20;0.77;;;15.00;99.90;;;;;;5043756;28;20288;-61
2023/10/30 01:41:26;;;;;;;2.67;1.02;;;15.00;99.90;;;;;;5040085;28;20237;-61
2023/10/30 01:43:53;;;;;;;1.57;0.73;;;15.00;99.90;;;;;;5039956;28;20210;-61
2023/10/30 01:46:19;;;;;;;1.03;0.70;;;15.00;99.90;;;;;;5041826;28;20206;-60
2023/10/30 01:48:47;;;;;;;0.67;0.63;;;14.80;99.90;;;;;;5042885;28;20205;-62
2023/10/30 01:51:14;;;;;;;1.70;0.87;;;14.80;99.90;;;;;;5040991;28;20660;-60
2023/10/30 01:53:41;;;;;;;1.07;0.77;;;14.90;99.90;;;;;;5039526;28;20297;-61
2023/10/30 01:56:09;;;;;;;1.98;1.20;;;15.10;99.90;;;;;;5040380;28;20241;-61
2023/10/30 01:58:37;;;;;;;1.17;0.70;;;15.00;99.90;;;;;;5042873;28;20225;-63
2023/10/30 02:01:04;;;;;;;1.30;1.20;;;15.10;99.90;;;;;;5042975;28;20253;-60
2023/10/30 02:03:31;;;;;;;0.97;0.87;;;15.10;99.90;;;;;;5039852;28;20198;-61
2023/10/30 02:05:58;;;;;;;3.03;0.60;;;15.10;99.90;;;;;;5039426;28;20213;-61
2023/10/30 02:08:25;;;;;;;1.10;0.80;;;15.10;99.90;;;;;;5045692;28;20671;-61
2023/10/30 02:10:52;;;;;;;6.20;0.60;;;15.00;99.90;;;;;;5046389;28;20368;-60
2023/10/30 02:13:20;;;;;;;2.20;0.90;;;15.10;99.90;;;;;;5044593;28;20293;-61
2023/10/30 02:15:47;;;;;;;3.27;0.90;;;15.10;99.90;;;;;;5043582;28;20210;-61
2023/10/30 02:18:14;;;;;;;1.00;0.70;;;15.10;99.90;;;;;;5044513;28;20238;-61
2023/10/30 02:20:40;;;;;;;1.20;0.83;;;15.20;99.90;;;;;;5046554;28;20229;-60
2023/10/30 02:23:07;;;;;;;1.37;1.00;;;15.10;99.90;;;;;;5045941;28;20212;-62
2023/10/30 02:25:35;;;;;;;1.60;1.10;;;15.10;99.90;;;;;;5043274;28;20247;-61
2023/10/30 02:28:02;;;;;;;2.23;1.40;;;15.10;99.90;;;;;;5043155;28;20293;-61
2023/10/30 02:30:29;;;;;;;2.22;1.20;;;15.10;99.90;;;;;;5034865;28;20222;-61
2023/10/30 02:32:56;;;;;;;1.95;1.13;;;15.10;99.90;;;;;;5042803;28;20210;-61
2023/10/30 02:35:23;;;;;;;1.63;1.10;;;15.00;99.90;;;;;;5045211;28;20625;-61
2023/10/30 02:37:50;;;;;;;1.03;0.90;;;14.80;99.90;;;;;;5046470;28;20239;-61
2023/10/30 02:40:17;;;;;;;4.70;0.97;;;14.70;99.90;;;;;;5044643;28;20221;-60
2023/10/30 02:42:45;;;;;;;1.20;0.77;;;14.60;99.90;;;;;;5042848;28;20210;-61
2023/10/30 02:45:12;;;;;;;1.73;0.90;;;14.50;99.90;;;;;;5043733;28;20213;-62
2023/10/30 02:47:39;;;;;;;2.00;0.80;;;14.50;99.90;;;;;;5046055;28;20607;-61
2023/10/30 02:50:07;;;;;;;1.77;1.10;;;14.40;99.90;;;;;;5045676;28;20270;-61
2023/10/30 02:52:35;;;;;;;1.20;0.90;;;14.40;99.90;;;;;;5042613;28;20213;-61
2023/10/30 02:55:02;;;;;;;1.57;1.10;;;14.30;99.90;;;;;;5042740;28;20244;-62
2023/10/30 02:57:28;;;;;;;1.13;0.80;;;14.20;99.90;;;;;;5045727;28;20615;-61
2023/10/30 02:59:56;;;;;;;2.30;2.10;;;14.10;99.90;;;;;;5045790;28;20232;-61
2023/10/30 03:02:23;;;;;;;3.60;1.77;;;14.00;99.90;;;;;;5042920;28;20597;-61
2023/10/30 03:04:50;;;;;;;4.40;1.40;;;13.90;99.90;;;;;;5042633;28;20206;-61
2023/10/30 03:07:17;;;;;;;2.23;1.30;;;13.90;99.90;;;;;;5043992;28;20210;-61
2023/10/30 03:09:43;;;;;;;2.37;0.90;;;13.90;99.90;;;;;;5045856;28;20211;-61
2023/10/30 03:12:11;;;;;;;1.27;0.70;;;13.90;99.90;;;;;;5044831;28;20217;-61
2023/10/30 03:14:37;;;;;;;1.70;1.00;;;13.90;99.90;;;;;;5042259;28;20676;-61
2023/10/30 03:17:06;;;;;;;1.90;0.87;;;13.90;99.90;;;;;;5042000;28;20226;-61
2023/10/30 03:19:33;;;;;;;2.50;0.63;;;13.90;99.90;;;;;;5033634;28;20206;-61
2023/10/30 03:21:59;;;;;;;1.83;0.80;;;13.90;99.90;;;;;;5041873;28;20673;-60
2023/10/30 03:24:26;;;;;;;1.90;0.80;;;13.80;99.90;;;;;;5045169;28;20221;-61
2023/10/30 03:26:53;;;;;;;2.33;0.80;;;13.80;99.90;;;;;;5045650;28;20213;-61
2023/10/30 03:29:19;;;;;;;1.13;0.70;;;13.90;99.90;;;;;;5043577;28;20206;-61
2023/10/30 03:31:46;;;;;;;1.80;1.00;;;13.90;99.90;;;;;;5041512;28;20296;-62
2023/10/30 03:34:16;;;;;;;1.53;0.70;;;14.00;99.90;;;;;;5043135;28;20217;-61
2023/10/30 03:36:43;;;;;;;2.10;0.90;;;14.10;99.90;;;;;;5045566;28;20649;-60
2023/10/30 03:39:09;;;;;;;1.53;0.80;;;14.20;99.90;;;;;;5044621;28;20232;-61
2023/10/30 03:41:37;;;;;;;1.33;0.87;;;14.30;99.90;;;;;;5041370;28;20270;-60
2023/10/30 03:44:04;;;;;;;1.43;0.80;;;14.40;99.90;;;;;;5042113;28;20280;-61
2023/10/30 03:46:31;;;;;;;2.20;0.70;;;14.40;99.90;;;;;;5045182;28;20201;-63
2023/10/30 03:48:58;;;;;;;1.37;0.73;;;14.40;99.90;;;;;;5045302;28;20205;-61
2023/10/30 03:51:26;;;;;;;1.97;0.80;;;14.30;99.90;;;;;;5042546;28;20234;-61
2023/10/30 03:53:52;;;;;;;0.83;0.77;;;14.20;99.90;;;;;;5042292;28;20210;-61
2023/10/30 03:56:19;;;;;;;3.93;0.87;;;14.10;99.90;;;;;;5043215;28;20252;-61
2023/10/30 03:58:46;;;;;;;0.47;0.47;;;14.00;99.90;;;;;;5044894;28;20241;-60
2023/10/30 04:01:13;;;;;;;0.60;0.60;;;13.90;99.90;;;;;;5044419;28;20726;-62
2023/10/30 04:03:39;;;;;;;1.70;1.00;;;13.80;99.90;;;;;;5041855;28;20210;-61
2023/10/30 04:06:06;;;;;;;1.23;0.70;;;13.60;99.90;;;;;;5041913;28;20202;-60
2023/10/30 04:08:34;;;;;;;1.77;0.80;;;13.60;99.90;;;;;;5033909;28;20571;-61
2023/10/30 04:11:08;;;;;;;0.73;0.63;;;13.60;99.90;;;;;;5071072;22;20582;-56
2023/10/30 04:13:34;;;;;;;1.70;0.60;;;13.50;99.90;;;;;;5032902;28;20209;-57
2023/10/30 04:16:01;;;;;;;3.53;0.80;;;13.40;99.90;;;;;;5040612;28;20215;-56
2023/10/30 04:18:28;;;;;;;3.43;1.00;;;13.40;99.90;;;;;;5032109;28;20714;-56
2023/10/30 04:20:55;;;;;;;1.17;0.70;;;13.40;99.90;;;;;;5040253;28;20765;-57
2023/10/30 04:23:22;;;;;;;1.13;0.80;;;13.40;99.90;;;;;;5042565;28;20218;-56
2023/10/30 04:25:50;;;;;;;1.93;1.30;;;13.40;99.90;;;;;;5044414;28;20209;-56
2023/10/30 04:28:17;;;;;;;2.77;1.00;;;13.40;99.90;;;;;;5042368;28;20201;-58
2023/10/30 04:30:43;;;;;;;1.27;1.17;;;13.30;99.90;;;;;;5039076;28;20249;-55
2023/10/30 04:33:10;;;;;;;2.00;0.80;;;13.20;99.90;;;;;;5040445;28;20613;-55
2023/10/30 04:35:37;;;;;;;2.53;1.20;;;13.00;99.90;;;;;;5043706;28;20205;-56
2023/10/30 04:38:03;;;;;;;5.00;1.03;;;12.90;99.90;;;;;;5043383;28;20217;-58
2023/10/30 04:40:30;;;;;;;3.20;1.30;;;12.80;99.90;;;;;;5040103;28;20603;-56
2023/10/30 04:42:58;;;;;;;1.53;1.43;;;12.70;99.90;;;;;;5040128;28;20210;-56
2023/10/30 04:45:25;;;;;;;1.97;1.23;;;12.60;99.90;;;;;;5042505;28;20206;-56
2023/10/30 04:47:52;;;;;;;0.90;0.70;;;12.70;99.90;;;;;;5043304;28;20201;-56
2023/10/30 04:50:18;;;;;;;1.07;0.60;;;12.70;99.90;;;;;;5041961;28;20240;-56
2023/10/30 04:52:45;;;;;;;2.33;0.70;;;12.70;99.90;;;;;;5039576;28;20211;-56
2023/10/30 04:55:12;;;;;;;4.97;1.60;;;12.60;99.90;;;;;;5040159;28;20213;-56
2023/10/30 04:57:38;;;;;;;1.30;0.87;;;12.50;99.90;;;;;;5043220;28;20229;-56
2023/10/30 05:00:08;;;;;;;2.10;0.97;;;12.60;99.90;;;;;;5043054;28;20228;-57
2023/10/30 05:02:35;;;;;;;2.07;1.00;;;12.60;99.90;;;;;;5031892;28;20498;-56
2023/10/30 05:05:02;;;;;;;2.27;1.03;;;12.60;99.90;;;;;;5039627;28;20690;-56
2023/10/30 05:07:28;;;;;;;2.10;1.30;;;12.70;99.90;;;;;;5042125;28;20233;-56
2023/10/30 05:09:55;;;;;;;3.63;1.20;;;12.60;99.90;;;;;;5042895;28;20205;-56
2023/10/30 05:12:22;;;;;;;3.03;2.47;;;12.60;99.90;;;;;;5040801;28;20582;-57
2023/10/30 05:14:48;;;;;;;9.47;4.97;;;12.70;99.90;;;;;;5039653;28;20202;-55
2023/10/30 05:17:16;;;;;;;2.27;1.27;;;12.80;99.90;;;;;;5040591;28;20575;-56
2023/10/30 05:19:43;;;;;;;6.67;4.40;;;13.00;99.90;;;;;;5042831;28;20295;-57
2023/10/30 05:22:10;;;;;;;4.83;2.57;;;13.10;99.90;;;;;;5042371;28;20298;-58
2023/10/30 05:24:36;;;;;;;2.30;1.70;;;13.20;99.90;;;;;;5039281;28;20202;-57
2023/10/30 05:27:03;;;;;;;2.63;1.70;;;13.30;99.90;;;;;;5039582;28;20206;-57
2023/10/30 05:29:30;;;;;;;2.57;1.43;;;13.30;99.90;;;;;;5041707;28;20206;-57
2023/10/30 05:32:02;;;;;;;2.20;1.60;;;13.40;99.90;;;;;;5042466;28;20232;-57
2023/10/30 05:34:31;;;;;;;3.23;2.03;;;13.50;99.90;;;;;;5040235;28;20593;-57
2023/10/30 05:36:58;;;;;;;2.60;2.40;;;13.50;99.90;;;;;;5039430;28;20240;-57
2023/10/30 05:39:25;;;;;;;3.13;1.60;;;13.50;99.90;;;;;;5040852;28;20222;-57
2023/10/30 05:41:51;;;;;;;2.13;1.50;;;13.30;99.90;;;;;;5042111;28;20585;-57
2023/10/30 05:44:19;;;;;;;2.17;1.57;;;13.10;99.90;;;;;;5041511;28;20225;-58
2023/10/30 05:46:45;;;;;;;3.73;1.90;;;13.00;99.90;;;;;;5039259;28;20206;-57
2023/10/30 05:49:12;;;;;;;2.33;1.60;;;12.90;99.90;;;;;;5038880;28;20676;-58
2023/10/30 05:51:40;;;;;;;1.83;1.07;;;12.80;99.90;;;;;;5031160;28;20234;-56
2023/10/30 05:54:07;;;;;;;2.43;1.50;;;12.60;99.90;;;;;;5039147;28;20214;-56
2023/10/30 05:56:33;;;;;;;2.27;1.33;;;12.60;99.90;;;;;;5041934;28;20206;-57
2023/10/30 05:59:00;;;;;;;5.07;1.37;;;12.40;99.90;;;;;;5042197;28;20294;-56
2023/10/30 06:01:27;;;;;;;2.00;1.33;;;12.40;99.90;;;;;;5039800;28;20237;-56
2023/10/30 06:03:53;;;;;;;2.43;1.40;;;12.30;99.90;;;;;;5038888;28;20233;-57
2023/10/30 06:06:20;;;;;;;4.63;1.80;;;12.30;99.90;;;;;;5040091;28;20618;-56
2023/10/30 06:08:48;;;;;;;3.43;1.70;;;12.20;99.90;;;;;;5042321;28;20213;-57
2023/10/30 06:11:15;;;;;;;1.93;1.60;;;12.20;99.90;;;;;;5041756;28;20245;-57
2023/10/30 06:13:42;;;;;;;3.10;2.00;;;12.10;99.90;;;;;;5038779;28;20213;-56
2023/10/30 06:16:14;;;;;;;2.30;1.83;;;12.00;99.90;;;;;;5038685;28;20206;-56
2023/10/30 06:18:41;;;;;;;2.33;1.60;;;11.80;99.90;;;;;;5031205;28;20226;-56
2023/10/30 06:21:08;;;;;;;5.13;1.63;;;11.70;99.90;;;;;;5038758;28;20297;-56
2023/10/30 06:23:35;;;;;;;1.73;1.50;;;11.60;99.90;;;;;;5042020;28;20671;-56
2023/10/30 06:26:08;;;;;;;2.77;2.10;;;11.50;99.90;;;;;;5042416;28;20291;-56
2023/10/30 06:28:35;;;;;;;3.77;2.20;;;11.50;99.90;;;;;;5038560;28;20719;-57
2023/10/30 06:31:03;;;;;;;4.03;2.10;;;11.40;99.90;;;;;;5038301;28;20241;-56
2023/10/30 06:33:31;;;;;;;4.80;1.90;;;11.40;99.90;;;;;;5040995;28;20217;-57
2023/10/30 06:35:58;;;;;;;2.87;1.70;;;11.40;99.90;;;;;;5042390;28;20201;-56
2023/10/30 06:38:25;;;;;;;3.37;1.90;;;11.30;99.90;;;;;;5040174;28;20264;-57
2023/10/30 06:40:52;;;;;;;4.03;1.80;;;11.30;99.90;;;;;;5038316;28;20647;-56
2023/10/30 06:43:20;;;;;;;5.73;1.50;;;11.30;99.90;;;;;;5039067;28;20229;-56
2023/10/30 06:45:47;;;;;;;2.80;1.50;;;11.40;99.90;;;;;;5042452;28;20210;-56
2023/10/30 06:48:13;;;;;;;2.60;1.60;;;11.60;99.90;;;;;;5042090;28;20205;-56
2023/10/30 06:50:40;;;;;;;3.13;1.90;;;11.90;99.90;;;;;;5030459;28;20260;-56
2023/10/30 06:53:07;;;;;;;1.57;1.20;;;12.40;99.90;;;;;;5038416;28;20225;-56
2023/10/30 06:55:36;;;;;;;3.33;1.60;;;12.90;99.90;;;;;;5044583;28;20237;-57
2023/10/30 06:58:03;;;;;;;2.63;1.80;;;13.20;99.90;;;;;;5045320;28;20210;-56
2023/10/30 07:00:31;;;;;;;3.37;1.63;;;13.30;99.90;;;;;;5043114;28;20260;-57
2023/10/30 07:02:58;;;;;;;1.93;1.53;;;13.20;99.90;;;;;;5041754;28;20221;-57
2023/10/30 07:05:24;;;;;;;2.13;1.70;;;13.10;99.90;;;;;;5043032;28;20206;-56
2023/10/30 07:07:51;;;;;;;2.00;1.00;;;13.00;99.90;;;;;;5045253;28;20663;-56
2023/10/30 07:10:18;;;;;;;1.50;0.90;;;12.80;99.90;;;;;;5044226;28;20229;-56
2023/10/30 07:12:45;;;;;;;3.17;1.70;;;12.70;99.90;;;;;;5041417;28;20664;-56
2023/10/30 07:15:11;;;;;;;1.93;1.20;;;12.70;99.90;;;;;;5041864;28;20237;-56
2023/10/30 07:17:40;;;;;;;3.67;1.30;;;12.80;99.90;;;;;;5044825;28;20214;-57
2023/10/30 07:20:08;;;;;;;3.40;1.20;;;12.90;99.90;;;;;;5044724;28;20706;-56
2023/10/30 07:22:36;;;;;;;1.23;1.10;;;13.00;99.90;;;;;;5042160;28;20210;-57
2023/10/30 07:25:03;;;;;;;1.10;1.00;;;13.10;99.90;;;;;;5041477;28;20294;-57
2023/10/30 07:27:29;;;;;;;2.27;1.20;;;13.20;99.90;;;;;;5043722;28;20214;-56
2023/10/30 07:29:56;;;;;;;2.90;1.43;;;13.20;99.90;;;;;;5045180;28;20206;-58
2023/10/30 07:32:23;;;;;;;1.77;1.23;;;13.30;99.90;;;;;;5043788;28;20206;-57
2023/10/30 07:34:51;;;;;;;2.37;1.20;;;13.30;99.90;;;;;;5041397;28;20261;-56
2023/10/30 07:37:17;;;;;;;2.57;1.43;;;13.30;99.90;;;;;;5041458;28;20684;-56
2023/10/30 07:39:45;;;;;;;3.47;1.30;;;13.40;99.90;;;;;;5044662;28;20275;-57
2023/10/30 07:42:11;;;;;;;2.60;1.50;;;13.40;99.90;;;;;;5044737;28;20253;-56
2023/10/30 07:44:38;;;;;;;2.90;1.20;;;13.40;99.90;;;;;;5041418;28;20210;-56
2023/10/30 07:47:05;;;;;;;3.13;1.90;;;13.50;99.90;;;;;;5041398;28;20214;-57
2023/10/30 07:49:32;;;;;;;3.93;1.63;;;13.50;99.90;;;;;;5043747;28;20615;-56
2023/10/30 07:52:00;;;;;;;2.80;1.20;;;13.60;99.90;;;;;;5044422;28;20225;-57
2023/10/30 07:54:27;;;;;;;1.93;1.40;;;13.60;99.90;;;;;;5042927;28;20233;-56
2023/10/30 07:56:53;;;;;;;1.97;1.67;;;13.70;99.90;;;;;;5040841;28;20658;-58
2023/10/30 07:59:20;;;;;;;1.70;1.50;;;13.80;99.90;;;;;;5041669;28;20230;-57
2023/10/30 08:01:50;;;;;;;3.23;1.53;;;13.80;99.90;;;;;;5044071;28;20610;-58
2023/10/30 08:04:16;;;;;;;2.63;1.60;;;13.80;99.90;;;;;;5044095;28;20210;-57
2023/10/30 08:06:43;;;;;;;5.43;1.70;;;13.80;99.90;;;;;;5040647;28;20221;-57
2023/10/30 08:09:12;;;;;;;2.07;1.87;;;13.90;99.90;;;;;;5040802;28;20589;-57
2023/10/30 08:11:38;;;;;;;2.03;1.73;;;13.90;99.90;;;;;;5043407;28;20229;-54
2023/10/30 08:14:05;;;;;;;2.80;2.00;;;13.90;99.90;;;;;;5044329;28;20210;-56
2023/10/30 08:16:33;;;;;;;3.10;2.30;;;14.10;99.90;;;;;;5041974;28;20217;-55
2023/10/30 08:18:59;;;;;;;2.07;1.80;;;14.20;99.90;;;;;;5040432;28;20660;-55
2023/10/30 08:21:26;;;;;;;3.50;2.13;;;14.30;99.90;;;;;;5041552;28;20601;-55
2023/10/30 08:23:53;;;;;;;2.47;2.17;;;14.40;99.90;;;;;;5044183;28;20355;-56
2023/10/30 08:26:21;;;;;;;3.37;2.20;;;14.30;99.90;;;;;;5043494;28;20209;-56
2023/10/30 08:28:48;;;;;;;3.80;2.30;;;14.40;99.90;;;;;;5040431;28;20207;-56
2023/10/30 08:31:16;;;;;;;2.50;2.00;;;14.50;99.90;;;;;;5040273;28;20288;-56
2023/10/30 08:33:43;;;;;;;3.00;2.20;;;14.60;99.90;;;;;;5032570;28;20497;-55
2023/10/30 08:36:10;;;;;;;3.67;2.53;;;14.70;99.90;;;;;;5041279;28;20202;-55
2023/10/30 08:38:38;;;;;;;3.63;2.30;;;14.80;99.90;;;;;;5043551;28;20202;-55
2023/10/30 08:41:05;;;;;;;3.23;2.37;;;14.90;99.90;;;;;;5043924;28;20225;-55
2023/10/30 08:43:33;;;;;;;4.43;2.10;;;14.80;99.90;;;;;;5041692;28;20683;-56
2023/10/30 08:46:00;;;;;;;4.37;2.60;;;14.90;99.90;;;;;;5040301;28;20210;-56
2023/10/30 08:48:27;;;;;;;4.07;2.93;;;15.00;99.90;;;;;;5041275;28;20301;-55
2023/10/30 08:50:53;;;;;;;3.87;2.57;;;15.00;99.90;;;;;;5043330;28;20414;-55
2023/10/30 08:53:20;;;;;;;3.70;2.40;;;14.90;99.90;;;;;;5042830;28;20205;-55
2023/10/30 08:55:47;;;;;;;2.53;2.10;;;14.90;99.90;;;;;;5039969;28;20253;-55
2023/10/30 08:58:13;;;;;;;2.03;1.80;;;14.90;99.90;;;;;;5040268;28;20202;-55
2023/10/30 09:00:42;;;;;;;2.57;2.03;;;15.00;99.90;;;;;;5042635;28;20275;-56
2023/10/30 09:03:09;;;;;;;5.90;4.20;;;15.10;99.90;;;;;;5043360;28;20233;-55
2023/10/30 09:05:35;;;;;;;6.47;3.37;;;15.20;99.90;;;;;;5040960;28;20212;-56
2023/10/30 09:08:02;;;;;;;2.43;1.93;;;15.40;99.90;;;;;;5039549;28;20251;-56
2023/10/30 09:10:32;;;;;;;3.22;2.15;;;15.50;99.90;;;;;;5040868;28;20279;-55
2023/10/30 09:12:59;;;;;;;2.10;1.90;;;15.60;99.90;;;;;;5043303;28;20223;-55
2023/10/30 09:15:25;;;;;;;2.17;1.97;;;15.60;99.90;;;;;;5042257;28;20205;-56
2023/10/30 09:17:53;;;;;;;1.87;1.57;;;15.60;99.90;;;;;;5039520;28;20210;-56
2023/10/30 09:20:20;;;;;;;2.40;1.67;;;15.70;99.90;;;;;;5039337;28;20728;-54
2023/10/30 09:22:47;;;;;;;4.22;1.70;;;15.80;99.90;;;;;;5042997;28;20209;-55
2023/10/30 09:25:13;;;;;;;2.25;1.63;;;15.90;99.90;;;;;;5042949;28;20202;-55
2023/10/30 09:27:40;;;;;;;3.15;1.50;;;16.00;99.90;;;;;;5039617;28;20206;-55
2023/10/30 09:30:08;;;;;;;3.35;1.70;;;16.10;99.90;;;;;;5038950;28;20656;-55
2023/10/30 09:32:34;;;;;;;2.72;1.25;;;16.10;99.90;;;;;;5040981;28;20608;-55
2023/10/30 09:35:03;;;;;;;3.03;2.00;;;16.20;99.90;;;;;;5042828;28;20263;-55
2023/10/30 09:37:29;;;;;;;1.80;1.48;;;16.20;99.90;;;;;;5041134;28;20201;-55
2023/10/30 09:39:57;;;;;;;5.50;3.92;;;16.20;99.90;;;;;;5039317;28;20225;-56
2023/10/30 09:42:23;;;;;;;3.72;1.10;;;16.20;99.90;;;;;;5039593;28;20293;-56
2023/10/30 09:44:50;;;;;;;3.28;1.42;;;16.30;99.90;;;;;;5042576;28;20701;-56
2023/10/30 09:47:18;;;;;;;1.60;1.30;;;16.30;99.90;;;;;;5042681;28;20206;-56
2023/10/30 09:49:47;;;;;;;2.63;1.48;;;16.30;99.90;;;;;;5031082;28;20589;-56
2023/10/30 09:52:16;;;;;;;2.42;1.35;;;16.40;99.90;;;;;;5038515;28;20226;-56
2023/10/30 09:54:44;;;;;;;2.45;1.67;;;16.50;99.90;;;;;;5041874;28;20202;-57
2023/10/30 09:57:12;;;;;;;4.95;1.52;;;16.60;99.90;;;;;;5041926;28;20206;-56
2023/10/30 09:59:39;;;;;;;2.35;1.70;;;16.60;99.90;;;;;;5039389;28;20229;-57
2023/10/30 10:02:07;;;;;;;2.40;1.70;;;16.70;99.90;;;;;;5031594;28;20226;-54
2023/10/30 10:04:33;;;;;;;1.65;1.13;;;16.90;99.90;;;;;;5040267;28;20198;-56
2023/10/30 10:07:01;;;;;;;2.20;1.42;;;16.90;99.90;;;;;;5041881;28;20292;-56
2023/10/30 10:09:29;;;;;;;2.28;1.30;;;17.00;99.90;;;;;;5040861;28;20197;-57
2023/10/30 10:11:59;;;;;;;2.05;1.13;;;17.30;99.90;;;;;;5057169;22;20709;-61
2023/10/30 10:14:30;;;;;;;3.47;1.27;;;17.60;99.90;;;;;;5050656;28;20202;-61
2023/10/30 10:16:59;;;;;;;4.38;1.38;;;17.80;99.90;;;;;;5050481;28;20201;-61
2023/10/30 10:19:26;;;;;;;2.67;1.40;;;18.00;99.90;;;;;;5050624;28;20222;-61
2023/10/30 10:21:53;;;;;;;2.45;0.90;;;18.10;99.90;;;;;;5050529;28;20225;-62
2023/10/30 10:24:29;;;;;;;1.35;1.25;;;18.20;99.90;;;;;;5050064;28;20214;-60
2023/10/30 10:27:02;;;;;;;2.30;1.30;;;18.20;99.90;;;;;;5047773;28;20243;-61
2023/10/30 10:29:29;;;;;;;2.13;1.02;;;18.10;99.90;;;;;;5047111;28;20295;-61
2023/10/30 10:31:57;;;;;;;0.95;0.93;;;18.00;99.90;;;;;;5053650;28;20236;-59
2023/10/30 10:34:23;;;;;;;3.50;1.60;;;17.90;99.90;;;;;;5051763;28;20233;-60
2023/10/30 10:36:50;;;;;;;2.25;1.20;;;18.00;99.90;;;;;;5053867;28;20274;-60
2023/10/30 10:39:17;;;;;;;2.00;1.27;;;17.90;99.90;;;;;;5053318;28;20699;-60
2023/10/30 10:41:45;;;;;;;1.60;0.80;;;17.90;99.90;;;;;;5053801;28;20225;-60
2023/10/30 10:44:13;;;;;;;3.20;1.08;;;17.90;99.90;;;;;;5052625;28;20209;-60
2023/10/30 10:46:40;;;;;;;1.60;1.10;;;17.90;99.90;;;;;;5053270;28;20225;-61
2023/10/30 10:49:07;;;;;;;2.42;0.82;;;17.90;99.90;;;;;;5053853;28;20374;-61
2023/10/30 10:51:35;;;;;;;1.70;1.13;;;17.90;99.90;;;;;;5052671;28;20225;-61
2023/10/30 10:54:06;;;;;;;1.88;1.00;;;17.90;99.90;;;;;;5052429;28;20371;-60
2023/10/30 10:56:37;;;;;;;2.65;1.00;;;17.90;99.90;;;;;;5053750;28;20206;-62
2023/10/30 10:59:11;;;;;;;1.92;0.82;;;18.10;99.90;;;;;;5053552;28;20208;-63
2023/10/30 11:01:42;;;;;;;2.53;0.88;;;18.30;99.90;;;;;;5051429;28;20617;-62
2023/10/30 11:04:10;;;;;;;2.03;0.90;;;18.50;99.90;;;;;;5053674;28;20284;-61
2023/10/30 11:06:42;;;;;;;2.05;1.00;;;18.60;99.90;;;;;;5053789;28;20209;-62
2023/10/30 11:09:13;;;;;;;1.42;1.00;;;18.70;99.90;;;;;;5052443;28;20240;-63
2023/10/30 11:11:50;;;;;;;1.98;0.90;;;18.70;99.90;;;;;;5051862;28;20237;-63
2023/10/30 11:14:27;;;;;;;2.95;1.00;;;18.80;99.90;;;;;;5052957;28;20206;-61
2023/10/30 11:17:00;;;;;;;1.50;1.00;;;18.80;99.90;;;;;;5046338;28;20383;-60
2023/10/30 11:19:28;;;;;;;1.67;1.20;;;18.90;99.90;;;;;;5053295;28;20209;-60
2023/10/30 11:21:55;;;;;;;0.75;0.75;;;18.80;99.90;;;;;;5052931;28;20229;-65
2023/10/30 11:24:38;;;;;;;1.27;0.80;;;18.80;99.90;;;;;;5052336;28;20206;-65
2023/10/30 11:27:33;;;;;;;2.05;1.02;;;18.80;99.90;;;;;;5053664;28;20205;-65
2023/10/30 11:30:05;;;;;;;1.80;0.85;;;18.90;99.90;;;;;;5053223;28;20205;-65
2023/10/30 11:32:32;;;;;;;1.98;0.80;;;19.00;99.90;;;;;;5051506;28;20233;-63
2023/10/30 11:35:01;;;;;;;1.70;1.08;;;19.00;99.90;;;;;;5052846;28;20668;-66
2023/10/30 11:37:32;;;;;;;1.25;0.90;;;19.10;99.90;;;;;;5053495;28;20339;-65
2023/10/30 11:40:02;;;;;;;3.53;0.80;;;19.10;99.90;;;;;;5052402;28;20225;-60
2023/10/30 11:42:33;;;;;;;1.38;1.05;;;19.20;99.90;;;;;;5052632;28;20320;-62
2023/10/30 11:45:22;;;;;;;1.48;0.60;;;19.20;99.90;;;;;;5053023;28;20206;-63
2023/10/30 11:47:58;;;;;;;1.77;0.90;;;19.10;99.90;;;;;;5044486;28;20686;-63
2023/10/30 11:50:28;;;;;;;1.20;0.80;;;19.00;99.90;;;;;;5053351;28;20201;-62
2023/10/30 11:52:55;;;;;;;3.17;0.90;;;18.90;99.90;;;;;;5053379;28;20638;-63
2023/10/30 11:55:23;;;;;;;1.25;0.63;;;18.90;99.90;;;;;;5053407;28;20239;-61
2023/10/30 11:57:50;;;;;;;1.85;0.63;;;18.90;99.90;;;;;;5044768;28;20201;-61
2023/10/30 12:00:19;;;;;;;2.78;0.98;;;18.80;99.90;;;;;;5052787;28;20742;-64
2023/10/30 12:02:46;;;;;;;3.83;0.98;;;18.70;99.90;;;;;;5052826;28;20615;-62
2023/10/30 12:05:13;;;;;;;2.70;1.08;;;18.70;99.90;;;;;;5053038;28;20212;-62
2023/10/30 12:07:39;;;;;;;3.67;1.15;;;18.60;99.90;;;;;;5052399;28;20678;-62
2023/10/30 12:10:08;;;;;;;4.20;0.98;;;18.50;99.90;;;;;;5052708;28;20197;-61
2023/10/30 12:12:35;;;;;;;1.42;1.02;;;18.50;99.90;;;;;;5052290;28;20271;-62
2023/10/30 12:15:03;;;;;;;2.00;1.42;;;18.50;99.90;;;;;;5052725;28;20208;-61
2023/10/30 12:17:31;;;;;;;4.22;1.55;;;18.50;99.90;;;;;;5052395;28;20293;-63
2023/10/30 12:19:58;;;;;;;1.95;0.90;;;18.50;99.90;;;;;;5052891;28;20232;-62
2023/10/30 12:22:25;;;;;;;1.63;0.85;;;18.50;99.90;;;;;;5052633;28;20221;-64
2023/10/30 12:24:51;;;;;;;1.85;0.90;;;18.50;99.90;;;;;;5052988;28;20228;-63
2023/10/30 12:27:21;;;;;;;2.13;1.10;;;18.60;99.90;;;;;;5052752;28;20686;-61
2023/10/30 12:29:53;;;;;;;1.30;0.90;;;18.80;99.90;;;;;;5052740;28;20609;-62
2023/10/30 12:32:20;;;;;;;2.08;1.00;;;19.00;99.90;;;;;;5052544;28;20233;-62
2023/10/30 12:34:49;;;;;;;1.65;1.05;;;19.20;99.90;;;;;;5052572;28;20233;-62
2023/10/30 12:37:20;;;;;;;3.63;1.00;;;19.30;99.90;;;;;;5052617;28;20202;-63
2023/10/30 12:40:08;;;;;;;1.35;0.90;;;19.40;99.90;;;;;;5052280;28;20263;-62
2023/10/30 12:42:36;;;;;;;6.65;1.23;;;19.50;99.90;;;;;;5052289;28;20225;-62
2023/10/30 12:45:11;;;;;;;7.97;5.10;;;19.70;99.90;;;;;;5052490;28;20198;-61
2023/10/30 12:47:38;;;;;;;2.85;1.70;;;19.80;99.90;;;;;;5051951;28;20205;-62
2023/10/30 12:50:08;;;;;;;4.38;2.03;;;19.80;99.90;;;;;;5052489;28;20208;-63